Time;durP1;ratioP1;P1;durP2;ratioP2;P2;SDS_P1;SDS_P2;PMS_P1;PMS_P2;Temp;Humidity;BMP_temperature;BMP_pressure;BME280_temperature;BME280_humidity;BME280_pressure;Samples;Min_cycle;Max_cycle;Signal;HPM_P1;HPM_P2
2021/07/16 00:00:21;;;;;;;27.90;4.20;;;;;;;22.89;60.85;100850.17;1763144;81;25848;-60
2021/07/16 00:02:52;;;;;;;21.77;4.75;;;;;;;22.88;60.80;100853.97;1763349;81;25731;-60
2021/07/16 00:05:20;;;;;;;14.93;4.90;;;;;;;22.86;60.85;100858.81;1763253;81;28135;-59
2021/07/16 00:07:47;;;;;;;26.40;4.90;;;;;;;22.85;61.18;100857.67;1763175;81;26501;-59
2021/07/16 00:10:20;;;;;;;17.67;4.45;;;;;;;22.82;60.51;100851.55;1757897;81;25722;-59
2021/07/16 00:12:48;;;;;;;14.07;4.85;;;;;;;22.85;60.49;100850.81;1763632;81;26417;-59
2021/07/16 00:15:17;;;;;;;10.93;4.83;;;;;;;22.85;60.20;100864.02;1762500;79;25822;-59
2021/07/16 00:17:45;;;;;;;19.05;4.78;;;;;;;22.87;60.06;100864.62;1758557;81;27003;-59
2021/07/16 00:20:14;;;;;;;15.65;4.50;;;;;;;22.88;59.90;100869.05;1761087;81;25833;-60
2021/07/16 00:22:41;;;;;;;22.37;5.37;;;;;;;22.89;59.80;100868.54;1790938;79;25714;-60
2021/07/16 00:25:11;;;;;;;24.10;4.40;;;;;;;22.88;59.71;100868.22;1771607;79;25811;-60
2021/07/16 00:27:41;;;;;;;14.10;4.35;;;;;;;22.82;59.73;100877.61;1762403;81;25754;-61
2021/07/16 00:30:10;;;;;;;14.93;4.90;;;;;;;22.75;59.88;100876.78;1761323;81;27548;-61
2021/07/16 00:32:38;;;;;;;31.37;5.25;;;;;;;22.69;60.17;100872.17;1763285;81;25720;-60
2021/07/16 00:35:07;;;;;;;28.45;5.40;;;;;;;22.65;60.08;100872.27;1763582;81;25768;-60
2021/07/16 00:37:34;;;;;;;19.62;4.60;;;;;;;22.60;60.02;100876.20;1763483;81;25937;-60
2021/07/16 00:40:05;;;;;;;11.08;4.95;;;;;;;22.56;60.71;100880.41;1763270;81;26663;-60
2021/07/16 00:42:32;;;;;;;12.60;4.72;;;;;;;22.50;60.54;100882.95;1753698;80;28144;-60
2021/07/16 00:44:59;;;;;;;25.75;5.05;;;;;;;22.48;60.82;100883.69;1755423;81;25839;-60
2021/07/16 00:47:28;;;;;;;20.60;4.37;;;;;;;22.47;61.00;100883.91;1740317;82;25834;-59
2021/07/16 00:49:55;;;;;;;19.30;4.90;;;;;;;22.47;61.08;100885.28;1739005;82;26480;-61
2021/07/16 00:52:22;;;;;;;22.05;4.47;;;;;;;22.47;61.33;100879.80;1739862;82;25812;-61
2021/07/16 00:54:49;;;;;;;16.12;4.37;;;;;;;22.46;61.58;100873.46;1739959;81;27490;-58
2021/07/16 00:57:16;;;;;;;24.23;4.92;;;;;;;22.44;62.13;100875.59;1731152;82;25772;-58
2021/07/16 00:59:44;;;;;;;18.07;4.78;;;;;;;22.40;61.60;100868.01;1710255;83;25814;-59
2021/07/16 01:02:13;;;;;;;20.30;4.60;;;;;;;22.41;62.00;100862.84;1728404;82;25885;-58
2021/07/16 01:04:39;;;;;;;17.30;4.78;;;;;;;22.41;61.61;100869.70;1726572;83;25985;-59
2021/07/16 01:07:08;;;;;;;17.32;4.55;;;;;;;22.40;61.60;100870.21;1706462;84;26928;-60
2021/07/16 01:09:35;;;;;;;15.70;4.40;;;;;;;22.41;61.83;100866.42;1706376;83;25743;-59
2021/07/16 01:12:05;;;;;;;19.42;5.92;;;;;;;22.41;61.85;100862.84;1706462;84;25833;-59
2021/07/16 01:14:32;;;;;;;20.60;5.08;;;;;;;22.39;61.61;100863.01;1706031;84;25747;-59
2021/07/16 01:17:00;;;;;;;13.22;4.35;;;;;;;22.40;61.52;100866.09;1707586;83;25819;-59
2021/07/16 01:20:02;;;;;;;20.43;5.10;;;;;;;22.40;61.64;100863.90;1706437;84;27495;-60
2021/07/16 01:22:32;;;;;;;22.80;4.83;;;;;;;22.41;61.42;100862.84;1772904;79;25837;-60
2021/07/16 01:25:03;;;;;;;15.23;5.47;;;;;;;22.34;61.33;100868.30;1794674;79;25769;-60
2021/07/16 01:27:32;;;;;;;23.98;5.28;;;;;;;22.28;61.49;100855.42;1747049;79;25838;-60
2021/07/16 01:30:05;;;;;;;15.68;5.25;;;;;;;22.16;61.30;100856.08;1757759;81;25905;-60
2021/07/16 01:32:32;;;;;;;18.55;5.03;;;;;;;22.08;61.38;100860.41;1749562;81;27493;-60
2021/07/16 01:34:59;;;;;;;16.82;4.65;;;;;;;22.00;61.63;100863.36;1740624;82;25689;-60
2021/07/16 01:37:26;;;;;;;12.98;5.08;;;;;;;21.99;61.67;100871.25;1739326;82;25846;-60
2021/07/16 01:39:53;;;;;;;23.73;5.42;;;;;;;21.94;61.98;100877.36;1732823;82;25828;-60
2021/07/16 01:42:20;;;;;;;19.12;5.78;;;;;;;21.87;61.92;100873.23;1706569;84;25761;-60
2021/07/16 01:44:49;;;;;;;15.85;5.10;;;;;;;21.84;61.80;100877.75;1706344;84;27869;-59
2021/07/16 01:47:16;;;;;;;14.47;4.75;;;;;;;21.81;61.84;100879.55;1706171;84;26559;-59
2021/07/16 01:49:43;;;;;;;28.87;5.47;;;;;;;21.77;62.03;100878.27;1706552;84;25731;-60
2021/07/16 01:52:10;;;;;;;19.98;5.00;;;;;;;21.76;62.36;100869.73;1706181;84;25826;-60
2021/07/16 01:54:38;;;;;;;12.73;4.40;;;;;;;21.74;63.17;100862.25;1706481;83;26121;-59
2021/07/16 01:57:05;;;;;;;23.98;4.92;;;;;;;21.71;62.69;100873.09;1706419;83;27487;-59
2021/07/16 01:59:33;;;;;;;12.90;4.33;;;;;;;21.70;62.97;100869.20;1706163;84;25847;-59
2021/07/16 02:02:00;;;;;;;17.85;4.70;;;;;;;21.69;63.09;100868.38;1706464;84;25821;-59
2021/07/16 02:04:29;;;;;;;13.28;4.87;;;;;;;21.69;63.14;100871.12;1706257;84;26512;-60
2021/07/16 02:06:57;;;;;;;16.27;4.72;;;;;;;21.70;63.21;100878.79;1706315;84;25788;-60
2021/07/16 02:09:26;;;;;;;16.27;4.70;;;;;;;21.71;63.34;100872.27;1706130;83;27109;-60
2021/07/16 02:11:57;;;;;;;20.20;4.35;;;;;;;21.73;63.41;100874.28;1762985;80;25770;-60
2021/07/16 02:14:22;;;;;;;32.28;5.20;;;;;;;21.72;63.58;100880.80;1762835;80;25702;-60
2021/07/16 02:16:49;;;;;;;18.60;5.50;;;;;;;21.70;63.57;100876.88;1756544;81;25836;-60
2021/07/16 02:19:16;;;;;;;17.90;5.00;;;;;;;21.71;63.66;100875.00;1749041;81;27222;-61
2021/07/16 02:21:43;;;;;;;24.37;5.03;;;;;;;21.72;63.73;100870.68;1772029;79;27448;-60
2021/07/16 02:24:10;;;;;;;13.25;4.28;;;;;;;21.73;63.52;100875.65;1761795;79;25798;-61
2021/07/16 02:26:37;;;;;;;15.95;4.62;;;;;;;21.73;63.62;100869.62;1744442;82;25747;-60
2021/07/16 02:29:06;;;;;;;15.03;4.78;;;;;;;21.75;63.71;100883.11;1740004;82;25853;-60
2021/07/16 02:31:33;;;;;;;21.30;5.45;;;;;;;21.77;63.99;100889.22;1738378;82;25776;-60
2021/07/16 02:34:00;;;;;;;14.47;4.58;;;;;;;21.79;63.84;100885.76;1738212;82;27480;-60
2021/07/16 02:36:27;;;;;;;18.00;4.30;;;;;;;21.80;63.71;100884.71;1738735;82;25787;-60
2021/07/16 02:38:56;;;;;;;14.70;4.78;;;;;;;21.77;63.61;100889.77;1730033;80;25900;-60
2021/07/16 02:41:23;;;;;;;13.55;4.25;;;;;;;21.77;63.73;100885.66;1759851;81;26345;-60
2021/07/16 02:43:52;;;;;;;12.73;4.90;;;;;;;21.75;63.66;100883.64;1760942;81;25770;-60
2021/07/16 02:46:20;;;;;;;15.08;4.37;;;;;;;21.72;63.54;100885.73;1761554;81;27317;-60
2021/07/16 02:48:49;;;;;;;13.95;4.90;;;;;;;21.70;63.50;100882.89;1761296;81;25884;-60
2021/07/16 02:51:16;;;;;;;17.10;5.08;;;;;;;21.66;63.35;100880.24;1760941;81;25727;-60
2021/07/16 02:53:45;;;;;;;20.70;5.15;;;;;;;21.63;63.45;100886.16;1763032;80;25806;-61
2021/07/16 02:56:12;;;;;;;24.05;5.08;;;;;;;21.62;63.64;100884.45;1762666;81;25737;-61
2021/07/16 02:58:39;;;;;;;17.15;4.72;;;;;;;21.60;63.57;100892.89;1763158;81;27449;-61
2021/07/16 03:01:06;;;;;;;20.62;4.28;;;;;;;21.57;63.85;100887.78;1763482;81;25802;-60
2021/07/16 03:03:33;;;;;;;17.15;4.72;;;;;;;21.52;63.92;100889.77;1763269;81;25846;-59
2021/07/16 03:05:59;;;;;;;14.93;4.25;;;;;;;21.51;64.03;100895.46;1763542;80;26242;-59
2021/07/16 03:08:27;;;;;;;17.12;4.35;;;;;;;21.51;64.14;100892.19;1748377;80;25779;-59
2021/07/16 03:10:55;;;;;;;15.72;4.37;;;;;;;21.52;64.01;100889.77;1736948;82;28150;-60
2021/07/16 03:13:22;;;;;;;22.50;4.45;;;;;;;21.53;64.04;100890.60;1736720;82;25766;-60
2021/07/16 03:15:50;;;;;;;21.33;5.15;;;;;;;21.52;64.72;100892.51;1736036;81;25823;-60
2021/07/16 03:18:20;;;;;;;13.35;4.53;;;;;;;21.50;64.27;100902.81;1755127;81;25855;-60
2021/07/16 03:20:47;;;;;;;27.77;4.17;;;;;;;21.53;64.33;100906.52;1758035;80;25856;-60
2021/07/16 03:23:16;;;;;;;18.57;4.58;;;;;;;21.58;64.23;100909.50;1792253;79;27541;-60
2021/07/16 03:25:43;;;;;;;15.68;4.33;;;;;;;21.65;64.24;100912.27;1795093;79;25792;-60
2021/07/16 03:28:12;;;;;;;15.70;4.05;;;;;;;21.70;64.31;100912.47;1740770;79;26516;-60
2021/07/16 03:30:41;;;;;;;16.30;4.55;;;;;;;21.77;64.23;100915.23;1736870;82;26235;-60
2021/07/16 03:33:09;;;;;;;18.55;4.75;;;;;;;21.83;64.50;100916.30;1736707;82;25889;-61
2021/07/16 03:35:36;;;;;;;17.77;4.50;;;;;;;21.87;64.59;100908.84;1736879;82;27486;-60
2021/07/16 03:38:04;;;;;;;16.05;4.40;;;;;;;21.94;64.55;100913.47;1736677;82;26454;-60
2021/07/16 03:40:31;;;;;;;18.98;4.70;;;;;;;21.98;64.82;100918.33;1750605;81;26222;-60
2021/07/16 03:43:00;;;;;;;22.85;5.92;;;;;;;22.02;64.44;100922.34;1763391;81;25801;-59
2021/07/16 03:45:27;;;;;;;14.33;4.55;;;;;;;22.06;64.84;100922.77;1763300;81;25820;-59
2021/07/16 03:47:54;;;;;;;19.15;4.60;;;;;;;22.07;64.45;100922.23;1763441;81;27454;-59
2021/07/16 03:50:22;;;;;;;22.62;3.85;;;;;;;22.11;64.75;100929.82;1763338;81;25808;-60
2021/07/16 03:52:52;;;;;;;19.45;4.87;;;;;;;22.14;64.79;100921.73;1766899;80;25839;-60
2021/07/16 03:55:20;;;;;;;11.20;4.40;;;;;;;22.18;64.71;100922.98;1774849;80;25790;-59
2021/07/16 03:57:50;;;;;;;17.73;4.35;;;;;;;22.23;65.04;100925.95;1768553;80;26569;-59
2021/07/16 04:00:25;;;;;;;16.90;4.83;;;;;;;22.19;65.06;100935.63;1764581;81;27457;-60
2021/07/16 04:02:50;;;;;;;;;;;;;;;22.17;64.54;100932.26;1767106;81;25840;-59
2021/07/16 04:05:17;;;;;;;11.10;4.30;;;;;;;22.19;64.38;100933.72;1763253;81;25741;-59
2021/07/16 04:07:48;;;;;;;29.15;4.70;;;;;;;22.22;64.30;100935.73;1765505;81;25801;-59
2021/07/16 04:10:19;;;;;;;16.23;4.40;;;;;;;22.27;64.23;100936.80;1768957;81;25639;-60
2021/07/16 04:12:55;;;;;;;19.55;5.42;;;;;;;22.32;64.15;100935.63;1764295;81;27101;-60
2021/07/16 04:15:26;;;;;;;30.45;8.35;;;;;;;22.39;64.09;100940.28;1763920;81;25788;-60
2021/07/16 04:17:56;;;;;;;26.52;6.90;;;;;;;22.44;63.82;100940.52;1740718;81;25727;-61
2021/07/16 04:20:26;;;;;;;36.77;7.03;;;;;;;22.53;63.61;100939.79;1739142;81;25750;-60
2021/07/16 04:22:56;;;;;;;25.92;7.47;;;;;;;22.60;63.41;100929.66;1788197;79;25726;-61
2021/07/16 04:25:24;;;;;;;27.07;8.10;;;;;;;22.65;63.40;100933.96;1772290;79;27455;-60
2021/07/16 04:27:53;;;;;;;28.15;9.05;;;;;;;22.71;63.35;100935.02;1742512;81;25518;-59
2021/07/16 04:30:23;;;;;;;30.57;8.60;;;;;;;22.81;63.20;100936.29;1764237;81;25711;-60
2021/07/16 04:32:53;;;;;;;35.65;9.65;;;;;;;22.93;63.28;100937.84;1766462;81;26485;-60
2021/07/16 04:35:21;;;;;;;37.58;11.30;;;;;;;23.06;63.13;100938.84;1769716;81;25727;-61
2021/07/16 04:37:48;;;;;;;44.85;12.30;;;;;;;23.17;62.88;100937.36;1769539;81;27468;-61
2021/07/16 04:40:20;;;;;;;37.78;10.70;;;;;;;23.27;62.59;100932.27;1768820;81;25729;-61
2021/07/16 04:42:49;;;;;;;;;;;;;;;23.38;62.39;100935.70;1764883;79;25470;-61
2021/07/16 04:45:17;;;;;;;36.20;11.15;;;;;;;23.46;61.96;100934.63;1764537;81;26507;-61
2021/07/16 04:47:44;;;;;;;46.45;13.05;;;;;;;23.49;61.63;100935.55;1764672;81;25684;-61
2021/07/16 04:50:14;;;;;;;47.27;13.35;;;;;;;23.55;61.50;100936.06;1764824;81;26852;-60
2021/07/16 04:52:44;;;;;;;57.40;12.13;;;;;;;23.59;61.08;100941.41;1755270;80;25839;-61
2021/07/16 04:55:13;;;;;;;41.68;12.35;;;;;;;23.64;60.72;100940.76;1732000;82;25930;-61
2021/07/16 04:57:41;;;;;;;40.12;11.85;;;;;;;23.70;60.38;100941.79;1732495;82;26410;-61
2021/07/16 05:00:10;;;;;;;50.92;13.90;;;;;;;23.73;60.23;100942.19;1732444;82;25801;-60
2021/07/16 05:02:37;;;;;;;44.98;14.10;;;;;;;23.76;60.23;100943.13;1735405;81;27065;-61
2021/07/16 05:05:09;;;;;;;45.45;12.75;;;;;;;23.80;60.21;100934.47;1733145;82;25800;-59
2021/07/16 05:07:36;;;;;;;36.28;13.58;;;;;;;23.82;59.92;100941.41;1739411;81;26494;-62
2021/07/16 05:10:08;;;;;;;42.30;14.33;;;;;;;23.84;60.07;100936.55;1732534;82;25818;-61
2021/07/16 05:12:35;;;;;;;43.10;12.40;;;;;;;23.88;60.21;100939.15;1732445;82;25834;-61
2021/07/16 05:15:05;;;;;;;37.80;12.55;;;;;;;23.91;60.18;100937.34;1735508;82;27460;-61
2021/07/16 05:17:33;;;;;;;41.37;12.65;;;;;;;23.95;59.95;100935.54;1735157;82;25794;-61
2021/07/16 05:20:00;;;;;;;36.50;11.90;;;;;;;23.97;59.86;100937.03;1731561;82;25503;-61
2021/07/16 05:22:27;;;;;;;36.83;11.60;;;;;;;24.00;59.91;100937.94;1731827;82;25713;-60
2021/07/16 05:24:54;;;;;;;50.17;13.75;;;;;;;24.04;59.74;100939.19;1732740;82;25795;-61
2021/07/16 05:27:21;;;;;;;44.55;15.58;;;;;;;24.07;59.48;100945.59;1732853;82;27450;-61
2021/07/16 05:29:50;;;;;;;55.12;13.48;;;;;;;24.10;59.22;100939.36;1717735;81;25796;-60
2021/07/16 05:32:17;;;;;;;49.65;13.65;;;;;;;24.11;58.92;100936.41;1740630;80;25499;-60
2021/07/16 05:34:44;;;;;;;55.23;15.93;;;;;;;24.13;58.93;100937.00;1732330;82;25812;-60
2021/07/16 05:37:11;;;;;;;47.05;13.80;;;;;;;24.14;58.56;100935.94;1732600;82;25732;-60
2021/07/16 05:39:38;;;;;;;46.25;13.13;;;;;;;24.15;58.38;100932.67;1732444;82;27478;-60
2021/07/16 05:42:05;;;;;;;56.63;12.10;;;;;;;24.18;58.30;100927.57;1732294;82;25624;-60
2021/07/16 05:44:33;;;;;;;49.15;13.28;;;;;;;24.20;58.33;100926.83;1732589;82;26937;-61
2021/07/16 05:47:00;;;;;;;42.73;12.40;;;;;;;24.23;58.62;100928.28;1732587;82;26479;-60
2021/07/16 05:49:27;;;;;;;65.50;13.05;;;;;;;24.25;58.73;100928.87;1732576;82;25754;-60
2021/07/16 05:51:54;;;;;;;53.92;11.45;;;;;;;24.27;58.55;100932.80;1732346;82;27466;-60
2021/07/16 05:54:20;;;;;;;55.05;12.05;;;;;;;24.29;58.56;100933.42;1747946;80;25732;-60
2021/07/16 05:56:47;;;;;;;49.75;11.78;;;;;;;24.30;58.04;100927.69;1734964;82;25754;-60
2021/07/16 05:59:14;;;;;;;40.25;11.28;;;;;;;24.34;57.99;100933.58;1746723;81;25861;-61
2021/07/16 06:01:42;;;;;;;49.58;12.90;;;;;;;24.35;58.08;100925.64;1738422;81;25723;-61
2021/07/16 06:04:11;;;;;;;44.48;12.73;;;;;;;24.38;58.04;100937.02;1742348;81;27401;-61
2021/07/16 06:06:39;;;;;;;42.38;12.82;;;;;;;24.43;58.10;100936.35;1752346;81;25744;-60
2021/07/16 06:09:07;;;;;;;38.38;12.73;;;;;;;24.46;58.14;100937.80;1764444;81;25450;-60
2021/07/16 06:11:35;;;;;;;58.75;13.40;;;;;;;24.50;57.32;100930.80;1764401;81;26439;-60
2021/07/16 06:14:02;;;;;;;48.75;14.45;;;;;;;24.55;57.08;100933.70;1767460;80;25803;-61
2021/07/16 06:16:30;;;;;;;48.90;16.15;;;;;;;24.61;57.24;100934.72;1764187;80;27510;-61
2021/07/16 06:18:58;;;;;;;54.20;14.25;;;;;;;24.66;57.20;100941.73;1754256;80;25645;-61
2021/07/16 06:21:25;;;;;;;43.95;14.78;;;;;;;24.72;57.09;100929.89;1765033;80;25749;-61
2021/07/16 06:23:52;;;;;;;41.73;10.93;;;;;;;24.78;56.85;100941.89;1764193;80;25801;-60
2021/07/16 06:26:20;;;;;;;71.47;10.03;;;;;;;24.84;56.45;100939.60;1763332;80;25782;-61
2021/07/16 06:28:47;;;;;;;38.85;7.83;;;;;;;24.89;56.31;100930.12;1763212;81;27523;-61
2021/07/16 06:31:13;;;;;;;34.95;8.33;;;;;;;24.95;56.14;100930.60;1755395;80;25670;-61
2021/07/16 06:33:42;;;;;;;36.95;7.25;;;;;;;25.04;55.63;100924.80;1749134;81;25698;-61
2021/07/16 06:36:09;;;;;;;33.95;7.50;;;;;;;25.09;55.29;100932.67;1744993;80;26140;-60
2021/07/16 06:38:38;;;;;;;32.50;5.92;;;;;;;25.15;54.93;100924.00;1756789;81;25762;-61
2021/07/16 06:41:05;;;;;;;32.45;7.50;;;;;;;25.20;54.14;100918.66;1746255;81;27575;-61
2021/07/16 06:43:32;;;;;;;19.82;6.25;;;;;;;25.26;54.04;100921.86;1741010;81;25809;-61
2021/07/16 06:45:59;;;;;;;17.35;5.65;;;;;;;25.35;54.15;100921.03;1740521;81;25799;-60
2021/07/16 06:48:25;;;;;;;25.50;6.22;;;;;;;25.43;53.83;100915.23;1754627;81;26511;-61
2021/07/16 06:50:53;;;;;;;31.80;5.95;;;;;;;25.53;51.79;100910.53;1742903;81;25703;-60
2021/07/16 06:53:20;;;;;;;24.43;5.35;;;;;;;25.63;52.31;100911.37;1745675;81;28181;-60
2021/07/16 06:55:48;;;;;;;21.23;7.03;;;;;;;25.76;51.79;100904.83;1729159;82;25927;-60
2021/07/16 06:58:15;;;;;;;15.55;6.00;;;;;;;25.90;50.99;100906.30;1729317;82;25807;-60
2021/07/16 07:00:42;;;;;;;21.82;5.83;;;;;;;26.02;51.40;100901.36;1727383;82;25873;-60
2021/07/16 07:03:11;;;;;;;32.93;6.92;;;;;;;26.15;51.91;100898.96;1724058;82;25832;-60
2021/07/16 07:05:38;;;;;;;36.35;7.67;;;;;;;26.25;51.77;100891.77;1728501;82;28157;-63
2021/07/16 07:08:07;;;;;;;24.77;7.25;;;;;;;26.40;51.80;100889.10;1730972;82;25739;-60
2021/07/16 07:10:34;;;;;;;41.15;7.87;;;;;;;26.54;51.93;100889.16;1731409;82;25819;-60
2021/07/16 07:13:06;;;;;;;24.10;6.92;;;;;;;26.70;51.53;100888.11;1726737;82;26534;-60
2021/07/16 07:15:35;;;;;;;25.75;7.28;;;;;;;26.83;51.05;100887.05;1730943;81;25776;-60
2021/07/16 07:18:06;;;;;;;25.20;6.60;;;;;;;26.99;50.71;100893.75;1730669;82;29657;-60
2021/07/16 07:20:34;;;;;;;34.10;6.45;;;;;;;27.12;50.63;100895.40;1730926;82;25828;-61
2021/07/16 07:23:03;;;;;;;29.50;5.50;;;;;;;27.26;49.43;100887.12;1731901;81;25834;-61
2021/07/16 07:25:31;;;;;;;40.30;5.55;;;;;;;27.40;49.61;100895.13;1731319;82;25852;-61
2021/07/16 07:27:58;;;;;;;23.75;4.40;;;;;;;27.55;48.62;100889.10;1731485;82;25829;-59
2021/07/16 07:30:26;;;;;;;31.23;4.83;;;;;;;27.68;48.48;100888.78;1729074;82;27463;-60
2021/07/16 07:32:53;;;;;;;24.90;4.25;;;;;;;27.78;47.78;100894.50;1730589;82;25803;-60
2021/07/16 07:35:25;;;;;;;25.20;5.25;;;;;;;27.86;47.93;100893.27;1731207;82;26575;-59
2021/07/16 07:37:54;;;;;;;20.40;4.70;;;;;;;27.96;46.65;100893.45;1731308;82;26152;-61
2021/07/16 07:40:21;;;;;;;19.02;5.10;;;;;;;28.10;46.68;100889.85;1730756;82;25809;-61
2021/07/16 07:42:48;;;;;;;24.92;4.53;;;;;;;28.29;46.77;100893.72;1730657;82;28191;-60
2021/07/16 07:45:16;;;;;;;33.28;5.45;;;;;;;28.47;46.78;100890.39;1727141;83;25856;-60
2021/07/16 07:47:47;;;;;;;28.35;5.00;;;;;;;28.65;45.93;100886.52;1730448;82;25767;-60
2021/07/16 07:50:18;;;;;;;9.55;3.85;;;;;;;28.81;44.73;100889.00;1732010;82;25808;-61
2021/07/16 07:52:48;;;;;;;16.55;4.55;;;;;;;28.96;44.16;100889.19;1732178;82;25744;-61
2021/07/16 07:55:18;;;;;;;49.83;5.33;;;;;;;29.13;43.79;100888.29;1729274;82;27446;-62
2021/07/16 07:57:46;;;;;;;32.48;4.30;;;;;;;29.27;43.01;100887.34;1696757;82;25835;-61
2021/07/16 08:00:18;;;;;;;18.75;3.98;;;;;;;29.38;42.98;100882.78;1706469;84;25862;-60
2021/07/16 08:02:45;;;;;;;14.18;4.25;;;;;;;29.50;42.84;100882.92;1706695;84;25811;-60
2021/07/16 08:05:14;;;;;;;22.32;4.20;;;;;;;29.62;42.78;100874.48;1706539;83;25763;-61
2021/07/16 08:07:43;;;;;;;25.32;4.78;;;;;;;29.77;42.37;100877.09;1763161;81;28140;-60
2021/07/16 08:10:17;;;;;;;13.20;3.27;;;;;;;29.89;42.64;100872.23;1763421;81;25793;-60
2021/07/16 08:12:45;;;;;;;22.65;4.33;;;;;;;30.03;42.06;100875.97;1751408;81;25826;-60
2021/07/16 08:15:16;;;;;;;27.20;6.40;;;;;;;30.08;41.53;100870.45;1755744;81;25817;-60
2021/07/16 08:17:43;;;;;;;21.12;3.67;;;;;;;30.12;41.69;100875.20;1765548;81;25795;-61
2021/07/16 08:20:11;;;;;;;18.45;3.85;;;;;;;30.21;41.05;100876.12;1763252;81;27439;-61
2021/07/16 08:22:41;;;;;;;17.98;4.22;;;;;;;30.29;41.43;100868.69;1763607;81;25798;-61
2021/07/16 08:25:11;;;;;;;13.78;3.92;;;;;;;30.43;40.53;100860.73;1762784;81;25735;-60
2021/07/16 08:27:39;;;;;;;26.25;4.28;;;;;;;30.52;40.97;100857.77;1753959;81;26368;-60
2021/07/16 08:30:09;;;;;;;21.17;4.37;;;;;;;30.60;40.88;100860.58;1749720;81;25731;-61
2021/07/16 08:32:43;;;;;;;31.27;4.50;;;;;;;30.73;40.82;100857.87;1765686;81;27525;-63
2021/07/16 08:35:13;;;;;;;20.30;4.28;;;;;;;30.87;40.34;100856.82;1762605;81;26303;-60
2021/07/16 08:37:40;;;;;;;26.05;3.40;;;;;;;31.00;39.20;100856.88;1763360;81;25833;-61
2021/07/16 08:40:10;;;;;;;16.07;3.17;;;;;;;31.10;39.41;100858.34;1763455;81;26456;-61
2021/07/16 08:42:37;;;;;;;15.18;3.35;;;;;;;31.21;38.70;100855.88;1763649;81;25821;-60
2021/07/16 08:45:08;;;;;;;13.83;3.90;;;;;;;31.35;38.10;100853.42;1764761;81;27440;-60
2021/07/16 08:47:37;;;;;;;11.73;3.45;;;;;;;31.52;38.16;100850.95;1763038;81;25819;-60
2021/07/16 08:50:08;;;;;;;27.20;3.80;;;;;;;31.63;37.40;100845.69;1763542;81;25852;-61
2021/07/16 08:52:38;;;;;;;20.83;4.00;;;;;;;31.70;37.25;100853.77;1763595;81;25738;-61
2021/07/16 08:55:07;;;;;;;18.45;3.75;;;;;;;31.73;36.58;100856.00;1763135;80;25723;-61
2021/07/16 08:57:34;;;;;;;20.52;3.92;;;;;;;31.78;37.47;100846.25;1763236;81;28223;-61
2021/07/16 09:00:01;;;;;;;18.67;3.67;;;;;;;31.93;37.69;100843.22;1763172;80;26356;-61
2021/07/16 09:02:30;;;;;;;25.95;3.85;;;;;;;32.07;36.94;100847.09;1763078;81;25790;-60
2021/07/16 09:05:07;;;;;;;12.15;3.50;;;;;;;32.15;36.34;100843.74;1763200;81;26463;-61
2021/07/16 09:07:48;;;;;;;15.38;4.20;;;;;;;32.24;36.37;100845.45;1763302;81;25768;-61
2021/07/16 09:10:13;;;;;;;21.27;4.10;;;;;;;32.35;36.57;100845.44;1762937;80;27667;-61
2021/07/16 09:12:40;;;;;;;15.78;3.15;;;;;;;32.46;35.60;100842.34;1763373;81;25849;-61
2021/07/16 09:15:14;;;;;;;12.13;3.40;;;;;;;32.54;34.99;100843.72;1763221;80;25728;-61
2021/07/16 09:17:46;;;;;;;23.20;3.25;;;;;;;32.71;34.27;100847.55;1763384;81;25863;-61
2021/07/16 09:20:25;;;;;;;21.07;3.95;;;;;;;32.76;33.40;100846.16;1737121;81;25752;-60
2021/07/16 09:23:19;;;;;;;32.17;3.33;;;;;;;32.79;30.60;100844.78;1708152;82;28217;-60
2021/07/16 09:26:06;;;;;;;23.32;2.87;;;;;;;32.87;30.28;100846.12;1706216;83;25805;-61
2021/07/16 09:28:32;;;;;;;23.30;2.40;;;;;;;33.11;29.53;100841.29;1704134;83;25784;-61
2021/07/16 09:31:23;;;;;;;19.50;2.52;;;;;;;33.39;29.20;100841.14;1744894;81;25805;-61
2021/07/16 09:33:57;;;;;;;22.32;3.02;;;;;;;33.66;28.49;100832.32;1763388;80;25743;-61
2021/07/16 09:36:39;;;;;;;21.07;3.12;;;;;;;33.94;27.82;100839.63;1763449;81;28128;-61
2021/07/16 09:39:12;;;;;;;20.00;2.80;;;;;;;34.19;27.74;100839.14;1761436;81;25860;-61
2021/07/16 09:41:54;;;;;;;18.92;2.72;;;;;;;34.39;27.07;100834.47;1763456;81;25807;-60
2021/07/16 09:44:45;;;;;;;11.88;3.05;;;;;;;34.58;26.86;100838.17;1763049;81;26489;-60
2021/07/16 09:47:17;;;;;;;12.73;2.35;;;;;;;34.84;25.57;100837.86;1761572;81;25780;-60
2021/07/16 09:49:42;;;;;;;;;;;;;;;35.11;26.04;100829.42;1764840;81;27544;-60
2021/07/16 09:52:15;;;;;;;16.87;2.47;;;;;;;35.40;26.10;100833.52;1763472;81;25722;-60
2021/07/16 09:55:11;;;;;;;9.45;3.33;;;;;;;35.66;26.00;100828.07;1760546;80;25786;-60
2021/07/16 09:57:42;;;;;;;18.67;3.55;;;;;;;35.96;27.09;100824.52;1760625;80;25781;-60
2021/07/16 10:00:23;;;;;;;14.47;2.80;;;;;;;36.27;26.78;100824.78;1754039;80;26599;-60
2021/07/16 10:02:55;;;;;;;19.45;2.87;;;;;;;36.60;25.68;100826.70;1759526;81;27543;-60
2021/07/16 10:05:23;;;;;;;11.33;2.30;;;;;;;36.88;24.27;100831.70;1760716;81;26190;-60
2021/07/16 10:07:51;;;;;;;17.98;3.08;;;;;;;37.11;24.15;100837.42;1757082;80;25951;-61
2021/07/16 10:10:21;;;;;;;14.23;2.25;;;;;;;37.38;23.89;100839.33;1745096;81;25811;-59
2021/07/16 10:12:50;;;;;;;24.27;2.87;;;;;;;37.65;23.84;100843.17;1744589;80;25956;-61
2021/07/16 10:15:20;;;;;;;12.80;3.25;;;;;;;37.93;23.48;100841.66;1744783;82;27476;-61
2021/07/16 10:17:50;;;;;;;12.00;2.70;;;;;;;38.15;23.48;100839.39;1743935;82;25775;-61
2021/07/16 10:20:19;;;;;;;13.38;2.77;;;;;;;38.46;22.88;100834.93;1784762;79;25721;-59
2021/07/16 10:22:50;;;;;;;12.35;2.80;;;;;;;38.90;22.92;100830.29;1762114;80;26401;-61
2021/07/16 10:25:19;;;;;;;15.72;2.70;;;;;;;39.32;22.56;100830.44;1742713;80;25783;-60
2021/07/16 10:27:46;;;;;;;12.25;2.83;;;;;;;39.68;22.05;100829.25;1757718;81;28316;-61
2021/07/16 10:30:18;;;;;;;10.05;2.58;;;;;;;40.14;21.62;100843.17;1763410;81;25780;-59
2021/07/16 10:32:54;;;;;;;13.93;2.25;;;;;;;40.46;19.86;100828.26;1763025;81;26563;-60
2021/07/16 10:35:29;;;;;;;18.40;2.52;;;;;;;40.83;18.42;100831.97;1763851;80;25929;-60
2021/07/16 10:38:00;;;;;;;11.38;1.90;;;;;;;40.94;16.89;100830.41;1763032;81;25780;-60
2021/07/16 10:40:43;;;;;;;17.52;2.85;;;;;;;41.09;17.64;100830.42;1763089;81;28170;-60
2021/07/16 10:43:31;;;;;;;13.70;2.55;;;;;;;41.54;18.87;100828.08;1761769;80;25900;-61
2021/07/16 10:46:01;;;;;;;20.97;3.02;;;;;;;41.98;18.99;100820.57;1758596;79;25783;-62
2021/07/16 10:48:33;;;;;;;10.05;2.40;;;;;;;42.33;17.72;100826.67;1738680;80;26595;-60
2021/07/16 10:51:08;;;;;;;15.43;2.62;;;;;;;42.51;17.14;100818.77;1758026;81;25823;-61
2021/07/16 10:53:39;;;;;;;12.40;2.00;;;;;;;42.65;16.39;100815.57;1757584;80;27462;-60
2021/07/16 10:56:10;;;;;;;11.30;2.05;;;;;;;42.96;16.76;100819.80;1757737;81;25802;-61
2021/07/16 10:58:43;;;;;;;9.03;2.22;;;;;;;43.35;16.33;100817.94;1758346;81;25692;-61
2021/07/16 11:01:12;;;;;;;8.58;2.05;;;;;;;43.41;15.74;100806.58;1759282;80;26468;-61
2021/07/16 11:03:51;;;;;;;6.83;1.80;;;;;;;43.36;15.88;100806.02;1762816;80;26116;-61
2021/07/16 11:06:21;;;;;;;16.25;2.60;;;;;;;43.58;15.97;100804.06;1762817;81;27502;-61
2021/07/16 11:08:53;;;;;;;9.08;2.08;;;;;;;43.97;15.35;100806.30;1762056;81;25833;-61
2021/07/16 11:11:37;;;;;;;10.55;2.20;;;;;;;44.08;13.55;100808.02;1763781;80;25755;-60
2021/07/16 11:14:05;;;;;;;14.73;2.40;;;;;;;44.07;13.55;100797.87;1756123;81;26451;-61
2021/07/16 11:16:41;;;;;;;10.78;2.35;;;;;;;43.97;14.22;100796.39;1764059;81;25781;-61
2021/07/16 11:19:13;;;;;;;10.35;1.90;;;;;;;44.08;13.74;100800.94;1758446;79;28147;-60
2021/07/16 11:21:50;;;;;;;17.82;2.30;;;;;;;44.21;14.26;100791.16;1742682;81;25929;-61
2021/07/16 11:27:08;;;;;;;9.20;2.02;;;;;;;44.74;14.32;100794.86;1762849;81;26164;-60
2021/07/16 11:29:43;;;;;;;24.60;2.90;;;;;;;44.92;13.79;100788.98;1763649;80;25755;-62